Lake, Michigan
Current Conditions -  °F | °C
As of 5:39 AM on Wednesday 22 Oct 2014 (Local Time) from KMOP Reporting Station
Overcast Overcast  
Wind Chill: 34°   Ceiling: 2200
Heat Index: 38°   Visibility: 10mi
Dew Point: 34°   Wind: 6mph
Humidity: 83%   Direction: 360°N
Pressure: 30.31"   Gusts: NA
Location:  43.85°N, 85.01°W
Report Text: KMOP 220939Z AUTO 36005KT 10SM OVC022 04/01 A3031 RMK AO2 T00360010
Loading
Personal Weather Stations






























Interactive Weather Map
Tropical Storm Tracking
New forecast layout! Learn more

10-Day Weather Forecast

Advertisements
Track Severe Weather on mobile